Nullo Mountains, Australia
Current Conditions -  °F | °C
As of 3:00 PM on Saturday 20 Dec 2014 (Local Time) from YMDG Reporting Station
Clear Clear  
Wind Chill: 81°   Ceiling: Unl
Heat Index: 81°   Visibility: NA
Dew Point: 46°   Wind: 8mph
Humidity: 30%   Direction: 330°NNW
Pressure: 29.97"   Gusts: NA
Location:  32.72°S, 150.23°E
Report Text: YMDG 200400Z AUTO 33007KT //// // NCD 27/08 Q1015
Loading
Personal Weather Stations






























Interactive Weather Map New forecast layout! Learn more

10-Day Weather Forecast

Advertisements
Track Severe Weather on mobile